Time;durP1;ratioP1;P1;durP2;ratioP2;P2;SDS_P1;SDS_P2;PMS_P1;PMS_P2;Temp;Humidity;BMP_temperature;BMP_pressure;BME280_temperature;BME280_humidity;BME280_pressure;Samples;Min_cycle;Max_cycle;Signal;HPM_P1;HPM_P2
2021/12/19 00:02:36;;;;;;;;;29.00;28.00;;;;;;;;5078952;28;11494;-79
2021/12/19 00:10:36;;;;;;;;;29.00;24.75;;;;;;;;5067889;28;11486;-80
2021/12/19 00:13:03;;;;;;;;;23.50;22.25;;;;;;;;5094248;28;11532;-82
2021/12/19 00:15:30;;;;;;;;;30.00;25.25;;;;;;;;5086139;28;11648;-83
2021/12/19 00:17:58;;;;;;;;;29.25;23.25;;;;;;;;5081527;28;11496;-81
2021/12/19 00:20:26;;;;;;;;;32.00;29.75;;;;;;;;5083455;28;11452;-79
2021/12/19 00:22:54;;;;;;;;;33.00;28.75;;;;;;;;5086867;28;11656;-78
2021/12/19 00:25:21;;;;;;;;;34.25;28.25;;;;;;;;5087075;28;11499;-80
2021/12/19 00:27:48;;;;;;;;;32.25;29.00;;;;;;;;5077289;28;11524;-80
2021/12/19 00:30:16;;;;;;;;;28.75;26.00;;;;;;;;5077932;28;11633;-80
2021/12/19 00:32:43;;;;;;;;;31.75;26.00;;;;;;;;5065401;28;11525;-80
2021/12/19 00:35:11;;;;;;;;;31.75;27.50;;;;;;;;5081308;28;11491;-81
2021/12/19 00:37:40;;;;;;;;;40.25;28.25;;;;;;;;5087256;28;11505;-81
2021/12/19 00:40:08;;;;;;;;;24.00;24.00;;;;;;;;5082452;28;11664;-80
2021/12/19 00:42:37;;;;;;;;;33.50;29.50;;;;;;;;5084666;28;11563;-81
2021/12/19 00:45:16;;;;;;;;;23.50;22.75;;;;;;;;5072578;28;11515;-82
2021/12/19 00:47:43;;;;;;;;;26.50;19.50;;;;;;;;5080487;28;11557;-80
2021/12/19 00:50:11;;;;;;;;;28.00;25.75;;;;;;;;5075589;28;11627;-80
2021/12/19 00:52:40;;;;;;;;;36.25;32.00;;;;;;;;5073321;28;11639;-80
2021/12/19 00:55:08;;;;;;;;;27.25;22.75;;;;;;;;5059364;28;11609;-80
2021/12/19 00:57:36;;;;;;;;;30.75;25.75;;;;;;;;5077377;28;12432;-81
2021/12/19 01:00:05;;;;;;;;;32.00;30.50;;;;;;;;5073751;28;11489;-80
2021/12/19 01:02:33;;;;;;;;;28.25;23.00;;;;;;;;5082150;28;11456;-81
2021/12/19 01:05:00;;;;;;;;;28.25;27.00;;;;;;;;5073148;28;12334;-81
2021/12/19 01:07:27;;;;;;;;;34.75;25.00;;;;;;;;5083268;28;11592;-81
2021/12/19 01:09:56;;;;;;;;;20.50;20.25;;;;;;;;5079278;28;12409;-82
2021/12/19 01:12:26;;;;;;;;;26.75;20.50;;;;;;;;5063175;28;11580;-83
2021/12/19 01:14:54;;;;;;;;;24.25;21.00;;;;;;;;5059923;28;11643;-81
2021/12/19 01:17:21;;;;;;;;;28.25;24.00;;;;;;;;5078440;28;11608;-81
2021/12/19 01:19:48;;;;;;;;;29.00;26.50;;;;;;;;5052657;28;11503;-82
2021/12/19 01:22:16;;;;;;;;;28.75;26.75;;;;;;;;5087776;28;11640;-82
2021/12/19 01:24:44;;;;;;;;;22.50;19.75;;;;;;;;5074444;28;12276;-82
2021/12/19 01:27:13;;;;;;;;;25.50;21.00;;;;;;;;5081840;28;11532;-82
2021/12/19 01:29:40;;;;;;;;;32.00;28.50;;;;;;;;5079906;28;11596;-82
2021/12/19 01:32:08;;;;;;;;;32.00;29.50;;;;;;;;5081239;28;11507;-81
2021/12/19 01:34:36;;;;;;;;;31.00;26.00;;;;;;;;5071905;28;11636;-81
2021/12/19 01:37:03;;;;;;;;;32.00;30.25;;;;;;;;5082463;28;11547;-78
2021/12/19 01:39:30;;;;;;;;;34.75;29.00;;;;;;;;5073536;28;12291;-78
2021/12/19 01:41:58;;;;;;;;;33.25;31.75;;;;;;;;5056906;28;11543;-79
2021/12/19 01:44:27;;;;;;;;;34.50;29.00;;;;;;;;5068069;28;12356;-78
2021/12/19 01:46:55;;;;;;;;;40.00;31.75;;;;;;;;5080095;28;11544;-79
2021/12/19 01:49:23;;;;;;;;;36.25;30.75;;;;;;;;5071716;28;11572;-79
2021/12/19 01:51:51;;;;;;;;;35.25;32.50;;;;;;;;5084508;28;11544;-78
2021/12/19 01:54:19;;;;;;;;;35.00;28.25;;;;;;;;5080356;28;11489;-81
2021/12/19 01:56:46;;;;;;;;;43.25;28.00;;;;;;;;5083357;28;11560;-80
2021/12/19 01:59:14;;;;;;;;;25.25;21.75;;;;;;;;5091259;28;11539;-86
2021/12/19 02:01:43;;;;;;;;;32.00;26.75;;;;;;;;5078908;28;11509;-82
2021/12/19 02:04:11;;;;;;;;;39.00;32.25;;;;;;;;5081441;28;11522;-83
2021/12/19 02:06:39;;;;;;;;;40.25;33.00;;;;;;;;5065316;28;11568;-82
2021/12/19 02:09:08;;;;;;;;;37.00;34.75;;;;;;;;5057631;28;11611;-82
2021/12/19 02:11:35;;;;;;;;;37.00;31.75;;;;;;;;5083693;28;11558;-81
2021/12/19 02:14:03;;;;;;;;;29.00;25.50;;;;;;;;5078028;28;11676;-82
2021/12/19 02:16:31;;;;;;;;;36.25;32.75;;;;;;;;5063476;28;11523;-82
2021/12/19 02:19:00;;;;;;;;;29.50;27.50;;;;;;;;5072019;28;11577;-82
2021/12/19 02:21:29;;;;;;;;;32.50;28.00;;;;;;;;5059219;28;11536;-83
2021/12/19 02:23:58;;;;;;;;;40.00;31.00;;;;;;;;5054311;28;11585;-80
2021/12/19 02:26:26;;;;;;;;;44.25;36.50;;;;;;;;5073935;28;11604;-80
2021/12/19 02:28:53;;;;;;;;;31.75;31.25;;;;;;;;5080901;28;11671;-80
2021/12/19 02:31:22;;;;;;;;;33.50;28.75;;;;;;;;5070404;28;11512;-82
2021/12/19 02:34:01;;;;;;;;;35.50;31.50;;;;;;;;5071673;28;11714;-81
2021/12/19 02:36:43;;;;;;;;;39.50;35.25;;;;;;;;5087793;28;12413;-80
2021/12/19 02:50:25;;;;;;;;;33.75;27.75;;;;;;;;5072633;28;11531;-80
2021/12/19 02:52:55;;;;;;;;;30.50;28.75;;;;;;;;5057556;28;11533;-82
2021/12/19 02:55:22;;;;;;;;;34.75;30.75;;;;;;;;5072512;28;11653;-80
2021/12/19 02:57:51;;;;;;;;;32.00;22.25;;;;;;;;5075700;28;11655;-81
2021/12/19 03:00:23;;;;;;;;;31.75;29.00;;;;;;;;5078071;28;11562;-81
2021/12/19 03:02:51;;;;;;;;;40.50;29.50;;;;;;;;5075308;28;11607;-81
2021/12/19 03:05:18;;;;;;;;;40.50;38.25;;;;;;;;5077943;28;11550;-80
2021/12/19 03:07:45;;;;;;;;;31.50;28.75;;;;;;;;5078870;28;11672;-80
2021/12/19 03:10:52;;;;;;;;;26.75;22.75;;;;;;;;5075740;28;11499;-80
2021/12/19 03:13:27;;;;;;;;;38.00;32.25;;;;;;;;5072052;28;11564;-81
2021/12/19 03:18:40;;;;;;;;;28.00;25.75;;;;;;;;5072380;28;12050;-82
2021/12/19 03:21:12;;;;;;;;;38.25;26.50;;;;;;;;5080616;28;11666;-83
2021/12/19 03:23:39;;;;;;;;;31.00;26.25;;;;;;;;5082862;28;11618;-79
2021/12/19 03:26:08;;;;;;;;;34.00;29.00;;;;;;;;5079661;28;11630;-83
2021/12/19 03:28:35;;;;;;;;;36.75;31.25;;;;;;;;5070157;28;11531;-80
2021/12/19 03:31:04;;;;;;;;;36.25;28.75;;;;;;;;5066894;28;11505;-82
2021/12/19 03:33:32;;;;;;;;;29.25;18.25;;;;;;;;5077288;28;11553;-80
2021/12/19 03:36:00;;;;;;;;;31.50;28.00;;;;;;;;5076801;28;11549;-79
2021/12/19 03:38:27;;;;;;;;;36.50;28.00;;;;;;;;5067727;28;11523;-83
2021/12/19 03:41:10;;;;;;;;;43.00;29.25;;;;;;;;5057186;28;11539;-82
2021/12/19 03:43:38;;;;;;;;;36.50;32.00;;;;;;;;5081746;28;11592;-83
2021/12/19 03:46:06;;;;;;;;;35.00;28.75;;;;;;;;5066467;28;11559;-81
2021/12/19 03:48:33;;;;;;;;;26.50;22.50;;;;;;;;5070883;28;11660;-82
2021/12/19 03:51:01;;;;;;;;;32.75;26.75;;;;;;;;5087074;28;11646;-81
2021/12/19 03:53:29;;;;;;;;;31.75;26.75;;;;;;;;5074954;28;11587;-82
2021/12/19 03:55:56;;;;;;;;;35.50;27.75;;;;;;;;5079116;28;11673;-78
2021/12/19 03:58:24;;;;;;;;;32.50;25.50;;;;;;;;5072522;28;11603;-79
2021/12/19 04:00:58;;;;;;;;;26.50;22.25;;;;;;;;5085066;28;11478;-79
2021/12/19 04:03:25;;;;;;;;;34.25;30.50;;;;;;;;5086518;28;11567;-81
2021/12/19 04:05:53;;;;;;;;;31.25;25.00;;;;;;;;5086240;28;11649;-79
2021/12/19 04:08:21;;;;;;;;;29.50;26.50;;;;;;;;5077059;28;11672;-80
2021/12/19 04:10:50;;;;;;;;;35.25;31.00;;;;;;;;5077260;28;11621;-78
2021/12/19 04:13:18;;;;;;;;;31.00;26.00;;;;;;;;5085437;28;11705;-80
2021/12/19 04:15:46;;;;;;;;;36.50;34.25;;;;;;;;5058300;28;12142;-82
2021/12/19 04:18:14;;;;;;;;;32.50;24.50;;;;;;;;5082487;28;12412;-78
2021/12/19 04:20:42;;;;;;;;;29.25;28.50;;;;;;;;5081105;28;11553;-78
2021/12/19 04:23:09;;;;;;;;;30.50;26.50;;;;;;;;5078267;28;11566;-79
2021/12/19 04:25:36;;;;;;;;;28.75;24.75;;;;;;;;5066629;28;11582;-79
2021/12/19 04:28:04;;;;;;;;;40.50;34.50;;;;;;;;5077159;28;11573;-78
2021/12/19 04:30:32;;;;;;;;;27.75;24.25;;;;;;;;5078011;28;11529;-79
2021/12/19 04:33:02;;;;;;;;;39.00;34.25;;;;;;;;5084787;28;11608;-80
2021/12/19 04:35:34;;;;;;;;;31.75;26.50;;;;;;;;5083295;28;11555;-77
2021/12/19 04:38:39;;;;;;;;;30.75;21.25;;;;;;;;5081346;28;11658;-79
2021/12/19 04:52:23;;;;;;;;;30.00;25.75;;;;;;;;5082186;28;11606;-79
2021/12/19 04:55:11;;;;;;;;;29.50;20.25;;;;;;;;5085702;28;11543;-82
2021/12/19 04:57:44;;;;;;;;;28.00;27.75;;;;;;;;5068397;28;11536;-78
2021/12/19 05:00:16;;;;;;;;;34.00;27.75;;;;;;;;5084065;28;11551;-79
2021/12/19 05:02:50;;;;;;;;;33.00;24.75;;;;;;;;5079881;28;11562;-78
2021/12/19 05:05:49;;;;;;;;;38.25;30.25;;;;;;;;5071558;28;11537;-79
2021/12/19 05:14:21;;;;;;;;;25.00;24.00;;;;;;;;5072222;28;11558;-81
2021/12/19 05:16:50;;;;;;;;;34.00;27.00;;;;;;;;5072288;28;11520;-80
2021/12/19 05:19:24;;;;;;;;;36.50;33.75;;;;;;;;5079191;28;11531;-79
2021/12/19 05:21:55;;;;;;;;;24.00;22.25;;;;;;;;5071465;28;11637;-81
2021/12/19 05:27:10;;;;;;;;;34.50;27.75;;;;;;;;5065880;28;11547;-80
2021/12/19 05:29:38;;;;;;;;;22.75;21.25;;;;;;;;5076499;28;11662;-80
2021/12/19 05:32:07;;;;;;;;;19.00;19.00;;;;;;;;5082029;28;11471;-81
2021/12/19 05:34:35;;;;;;;;;18.75;16.00;;;;;;;;5078429;28;11689;-80
2021/12/19 05:45:20;;;;;;;;;29.25;19.75;;;;;;;;5075083;28;11688;-79
2021/12/19 05:47:49;;;;;;;;;24.25;20.00;;;;;;;;5083457;28;11563;-79
2021/12/19 05:50:18;;;;;;;;;25.00;22.50;;;;;;;;5070301;28;11659;-80
2021/12/19 05:52:47;;;;;;;;;30.50;21.00;;;;;;;;5074006;28;12317;-81
2021/12/19 05:55:17;;;;;;;;;24.75;20.50;;;;;;;;5076312;28;11675;-79
2021/12/19 05:57:45;;;;;;;;;18.75;13.00;;;;;;;;5082694;28;11665;-78
2021/12/19 06:00:16;;;;;;;;;32.75;24.25;;;;;;;;5078964;28;11555;-80
2021/12/19 06:02:44;;;;;;;;;20.50;16.00;;;;;;;;5076099;28;12293;-81
2021/12/19 06:05:12;;;;;;;;;23.50;17.50;;;;;;;;5063820;28;11468;-80
2021/12/19 06:07:40;;;;;;;;;26.50;22.00;;;;;;;;5072547;28;11555;-80
2021/12/19 06:10:08;;;;;;;;;24.50;20.00;;;;;;;;5074866;28;11671;-80
2021/12/19 06:12:38;;;;;;;;;24.25;23.75;;;;;;;;5077971;28;11689;-81
2021/12/19 06:15:08;;;;;;;;;20.25;16.25;;;;;;;;5084184;28;11499;-82
2021/12/19 06:17:35;;;;;;;;;26.50;24.50;;;;;;;;5073958;28;11639;-82
2021/12/19 06:20:03;;;;;;;;;24.75;21.75;;;;;;;;5077586;28;11552;-81
2021/12/19 06:22:30;;;;;;;;;18.00;15.00;;;;;;;;5094596;28;11628;-82
2021/12/19 06:24:57;;;;;;;;;25.75;15.50;;;;;;;;5081859;28;11605;-81
2021/12/19 06:27:25;;;;;;;;;15.75;14.00;;;;;;;;5059286;28;11479;-82
2021/12/19 06:29:53;;;;;;;;;24.75;20.25;;;;;;;;5077303;28;11550;-83
2021/12/19 06:32:21;;;;;;;;;20.50;20.25;;;;;;;;5075879;28;11441;-85
2021/12/19 06:34:48;;;;;;;;;17.25;15.75;;;;;;;;5075806;28;11482;-84
2021/12/19 06:37:15;;;;;;;;;19.00;14.75;;;;;;;;5073020;28;11514;-81
2021/12/19 06:39:43;;;;;;;;;18.75;16.50;;;;;;;;5075939;28;11693;-80
2021/12/19 06:42:17;;;;;;;;;23.50;16.25;;;;;;;;5077330;28;11651;-81
2021/12/19 06:44:44;;;;;;;;;16.25;15.25;;;;;;;;5081961;28;11552;-79
2021/12/19 06:47:13;;;;;;;;;16.00;13.00;;;;;;;;5072626;28;11452;-78
2021/12/19 06:49:40;;;;;;;;;27.00;22.75;;;;;;;;5074434;28;11470;-80
2021/12/19 06:52:07;;;;;;;;;16.25;13.50;;;;;;;;5077860;28;11535;-79
2021/12/19 06:54:34;;;;;;;;;12.75;12.75;;;;;;;;5075477;28;11484;-78
2021/12/19 06:57:02;;;;;;;;;16.75;15.50;;;;;;;;5082939;28;12187;-76
2021/12/19 06:59:29;;;;;;;;;16.25;13.00;;;;;;;;5067008;28;11519;-79
2021/12/19 07:01:57;;;;;;;;;27.00;22.25;;;;;;;;5075475;28;11616;-82
2021/12/19 07:04:25;;;;;;;;;19.25;12.75;;;;;;;;5061617;28;11660;-77
2021/12/19 07:06:53;;;;;;;;;16.25;14.75;;;;;;;;5081977;28;11533;-78
2021/12/19 07:09:20;;;;;;;;;20.25;20.25;;;;;;;;5078196;28;11480;-84
2021/12/19 07:11:48;;;;;;;;;41.00;33.75;;;;;;;;5079833;28;12272;-82
2021/12/19 07:14:15;;;;;;;;;33.50;33.25;;;;;;;;5081159;28;11650;-77
2021/12/19 07:16:43;;;;;;;;;17.25;17.25;;;;;;;;5080823;28;11649;-79
2021/12/19 07:19:10;;;;;;;;;17.00;14.00;;;;;;;;5040166;28;11518;-82
2021/12/19 07:21:39;;;;;;;;;11.25;11.25;;;;;;;;5060922;28;11543;-78
2021/12/19 07:24:09;;;;;;;;;20.00;17.25;;;;;;;;5072942;28;11479;-76
2021/12/19 07:26:36;;;;;;;;;24.00;19.75;;;;;;;;5070688;28;11615;-83
2021/12/19 07:29:08;;;;;;;;;25.00;18.75;;;;;;;;5069707;28;11532;-86
2021/12/19 07:31:37;;;;;;;;;20.75;20.75;;;;;;;;5071400;28;11425;-84
2021/12/19 07:34:06;;;;;;;;;18.75;15.00;;;;;;;;5076143;28;11595;-81
2021/12/19 07:36:40;;;;;;;;;14.50;13.50;;;;;;;;5079497;28;11494;-83
2021/12/19 07:39:12;;;;;;;;;8.50;8.50;;;;;;;;5072125;28;11492;-81
2021/12/19 07:41:40;;;;;;;;;16.00;11.25;;;;;;;;5074826;28;11447;-85
2021/12/19 07:44:08;;;;;;;;;11.75;10.00;;;;;;;;5073315;28;11512;-83
2021/12/19 07:46:35;;;;;;;;;9.25;9.25;;;;;;;;5075043;28;12157;-82
2021/12/19 07:49:03;;;;;;;;;18.25;12.25;;;;;;;;5079672;28;11464;-83
2021/12/19 07:51:30;;;;;;;;;15.00;12.50;;;;;;;;5064822;28;11577;-86
2021/12/19 07:53:57;;;;;;;;;16.25;10.50;;;;;;;;5079083;28;11404;-85
2021/12/19 07:56:26;;;;;;;;;15.50;12.00;;;;;;;;5080569;28;12028;-83
2021/12/19 07:58:54;;;;;;;;;16.00;14.00;;;;;;;;5078047;28;11468;-84
2021/12/19 08:01:22;;;;;;;;;22.25;17.50;;;;;;;;5071078;28;11445;-79
2021/12/19 08:03:49;;;;;;;;;18.75;14.50;;;;;;;;5077663;28;11490;-84
2021/12/19 08:06:17;;;;;;;;;16.50;16.50;;;;;;;;5054443;28;12330;-78
2021/12/19 08:08:52;;;;;;;;;14.75;12.75;;;;;;;;5076372;28;11477;-80
2021/12/19 08:14:06;;;;;;;;;18.00;15.25;;;;;;;;5072714;28;12294;-79
2021/12/19 08:16:33;;;;;;;;;12.25;12.25;;;;;;;;5074241;28;11486;-76
2021/12/19 08:19:01;;;;;;;;;12.50;9.75;;;;;;;;5075025;28;11524;-79
2021/12/19 08:21:28;;;;;;;;;20.00;17.00;;;;;;;;5078060;28;11622;-77
2021/12/19 08:24:00;;;;;;;;;21.25;17.75;;;;;;;;5076202;28;11685;-79
2021/12/19 08:26:27;;;;;;;;;21.25;15.75;;;;;;;;5071248;28;11537;-76
2021/12/19 08:28:54;;;;;;;;;14.75;14.00;;;;;;;;5048337;28;11524;-80
2021/12/19 08:31:24;;;;;;;;;20.00;17.25;;;;;;;;5076999;28;11451;-79
2021/12/19 08:33:51;;;;;;;;;24.00;20.75;;;;;;;;5068709;28;11519;-77
2021/12/19 08:36:18;;;;;;;;;22.50;17.50;;;;;;;;5075728;28;11609;-75
2021/12/19 08:38:47;;;;;;;;;23.50;18.25;;;;;;;;5078597;28;11461;-76
2021/12/19 08:41:14;;;;;;;;;20.00;20.00;;;;;;;;5070729;28;11473;-74
2021/12/19 08:43:41;;;;;;;;;18.50;16.25;;;;;;;;5062274;28;11641;-74
2021/12/19 08:46:11;;;;;;;;;29.00;29.00;;;;;;;;5076420;28;11471;-73
2021/12/19 08:48:40;;;;;;;;;22.00;18.25;;;;;;;;5071639;28;12174;-72
2021/12/19 08:51:08;;;;;;;;;29.00;23.00;;;;;;;;5076232;28;11508;-73
2021/12/19 08:53:36;;;;;;;;;29.00;19.25;;;;;;;;5075494;28;11502;-73
2021/12/19 08:56:03;;;;;;;;;24.25;20.25;;;;;;;;5073656;28;11633;-73
2021/12/19 08:58:30;;;;;;;;;18.50;17.00;;;;;;;;5068228;28;11619;-74
2021/12/19 09:01:01;;;;;;;;;18.50;14.50;;;;;;;;5071373;28;11471;-81
2021/12/19 09:03:29;;;;;;;;;14.75;12.75;;;;;;;;5075940;28;12429;-76
2021/12/19 09:05:59;;;;;;;;;21.75;14.25;;;;;;;;5078626;28;11497;-73
2021/12/19 09:08:26;;;;;;;;;21.00;14.50;;;;;;;;5079779;28;11472;-73
2021/12/19 09:10:55;;;;;;;;;19.50;14.00;;;;;;;;5073839;28;12280;-74
2021/12/19 09:13:22;;;;;;;;;16.00;15.75;;;;;;;;5075758;28;11521;-71
2021/12/19 09:15:50;;;;;;;;;19.50;16.50;;;;;;;;5059429;28;11490;-76
2021/12/19 09:18:17;;;;;;;;;24.50;18.75;;;;;;;;5068674;28;11484;-72
2021/12/19 09:20:45;;;;;;;;;16.25;13.50;;;;;;;;5084658;28;11567;-74
2021/12/19 09:23:14;;;;;;;;;20.50;16.25;;;;;;;;5072960;28;11485;-71
2021/12/19 09:25:41;;;;;;;;;24.50;21.50;;;;;;;;5074538;28;11501;-72
2021/12/19 09:28:08;;;;;;;;;20.00;15.25;;;;;;;;5076638;28;11493;-71
2021/12/19 09:30:36;;;;;;;;;21.75;19.25;;;;;;;;5076184;28;11520;-72
2021/12/19 09:33:04;;;;;;;;;21.00;16.75;;;;;;;;5071112;28;12373;-71
2021/12/19 09:35:31;;;;;;;;;43.25;36.25;;;;;;;;5076127;28;11563;-71
2021/12/19 09:37:59;;;;;;;;;43.25;41.00;;;;;;;;5084015;28;11551;-76
2021/12/19 09:40:34;;;;;;;;;68.00;51.25;;;;;;;;5074719;28;11692;-73
2021/12/19 09:43:04;;;;;;;;;37.25;35.25;;;;;;;;5074049;28;11688;-73
2021/12/19 09:45:33;;;;;;;;;47.00;40.00;;;;;;;;5075922;28;11538;-72
2021/12/19 09:48:01;;;;;;;;;70.25;55.50;;;;;;;;5083039;28;11599;-74
2021/12/19 09:50:30;;;;;;;;;28.75;26.75;;;;;;;;5077692;28;11584;-72
2021/12/19 09:52:58;;;;;;;;;31.00;28.75;;;;;;;;5089687;28;11521;-76
2021/12/19 09:55:28;;;;;;;;;24.50;23.75;;;;;;;;5078533;28;11663;-74
2021/12/19 09:57:57;;;;;;;;;24.75;22.50;;;;;;;;5080017;28;12288;-73
2021/12/19 10:00:25;;;;;;;;;10.00;8.75;;;;;;;;5076527;28;11462;-72
2021/12/19 10:02:52;;;;;;;;;13.00;8.25;;;;;;;;5073557;28;11507;-81
2021/12/19 10:05:22;;;;;;;;;17.00;17.00;;;;;;;;5075959;28;11455;-81
2021/12/19 10:07:51;;;;;;;;;11.50;8.00;;;;;;;;5072784;28;12237;-81
2021/12/19 10:13:02;;;;;;;;;12.50;10.50;;;;;;;;5054285;28;11457;-80
2021/12/19 10:15:33;;;;;;;;;6.75;6.75;;;;;;;;5077515;28;11525;-79
2021/12/19 10:18:06;;;;;;;;;12.75;12.75;;;;;;;;5071620;28;11413;-83
2021/12/19 10:20:47;;;;;;;;;17.00;10.25;;;;;;;;5072702;28;11440;-74
2021/12/19 10:23:19;;;;;;;;;12.00;9.25;;;;;;;;5075383;28;11505;-83
2021/12/19 10:25:56;;;;;;;;;12.25;9.25;;;;;;;;5076541;28;11449;-81
2021/12/19 10:28:26;;;;;;;;;12.00;10.25;;;;;;;;5068452;28;11432;-76
2021/12/19 10:30:53;;;;;;;;;9.25;9.25;;;;;;;;5066071;28;11411;-77
2021/12/19 10:33:22;;;;;;;;;15.00;10.00;;;;;;;;5051374;28;11578;-77
2021/12/19 10:35:53;;;;;;;;;21.25;17.75;;;;;;;;5066257;28;11474;-76
2021/12/19 10:38:22;;;;;;;;;17.50;16.50;;;;;;;;5075184;28;11547;-79
2021/12/19 10:40:51;;;;;;;;;17.00;15.75;;;;;;;;5070549;28;11488;-77
2021/12/19 10:43:19;;;;;;;;;16.00;14.25;;;;;;;;5074136;28;11608;-83
2021/12/19 10:45:51;;;;;;;;;17.50;14.50;;;;;;;;5068311;28;11577;-76
2021/12/19 10:48:31;;;;;;;;;12.75;12.75;;;;;;;;5081313;28;11473;-73
2021/12/19 10:51:03;;;;;;;;;15.75;12.00;;;;;;;;5075167;28;11588;-75
2021/12/19 10:53:38;;;;;;;;;21.00;16.75;;;;;;;;5072496;28;11530;-74
2021/12/19 10:56:09;;;;;;;;;25.75;21.00;;;;;;;;5072738;28;11497;-73
2021/12/19 10:58:40;;;;;;;;;10.50;10.50;;;;;;;;5073767;28;12258;-76
2021/12/19 11:01:29;;;;;;;;;17.50;16.00;;;;;;;;5070240;28;11423;-74
2021/12/19 11:04:03;;;;;;;;;19.75;19.75;;;;;;;;5074498;28;11587;-75
2021/12/19 11:06:41;;;;;;;;;21.25;17.00;;;;;;;;5077611;28;11753;-77
2021/12/19 11:09:13;;;;;;;;;25.25;20.75;;;;;;;;5076527;28;11552;-73
2021/12/19 11:11:44;;;;;;;;;16.50;16.25;;;;;;;;5073378;28;11510;-73
2021/12/19 11:14:12;;;;;;;;;9.00;9.00;;;;;;;;5076690;28;11583;-79
2021/12/19 11:16:43;;;;;;;;;24.75;24.25;;;;;;;;5075018;28;11461;-72
2021/12/19 11:19:10;;;;;;;;;30.25;24.25;;;;;;;;5076512;28;11480;-72
2021/12/19 11:21:38;;;;;;;;;28.25;23.50;;;;;;;;5083439;28;12250;-74
2021/12/19 11:24:08;;;;;;;;;30.00;26.00;;;;;;;;5067006;28;11450;-73
2021/12/19 11:26:37;;;;;;;;;26.75;22.25;;;;;;;;5073662;28;11498;-72
2021/12/19 11:29:05;;;;;;;;;26.00;17.50;;;;;;;;5079018;28;11501;-78
2021/12/19 11:31:34;;;;;;;;;29.75;27.75;;;;;;;;5054441;28;11409;-74
2021/12/19 11:34:23;;;;;;;;;21.50;18.25;;;;;;;;5073078;28;11629;-78
2021/12/19 11:36:57;;;;;;;;;26.00;23.25;;;;;;;;5074347;28;11564;-77
2021/12/19 11:39:33;;;;;;;;;25.25;21.25;;;;;;;;5072312;28;11465;-78
2021/12/19 11:42:13;;;;;;;;;21.75;18.00;;;;;;;;5077793;28;12367;-81
2021/12/19 11:44:48;;;;;;;;;27.50;25.50;;;;;;;;5073732;28;11484;-86
2021/12/19 11:47:38;;;;;;;;;32.50;26.00;;;;;;;;5077757;28;11494;-82
2021/12/19 11:50:18;;;;;;;;;30.25;25.25;;;;;;;;5073681;28;11565;-73
2021/12/19 11:52:46;;;;;;;;;25.25;21.50;;;;;;;;5076913;28;11480;-73
2021/12/19 11:55:25;;;;;;;;;23.75;19.25;;;;;;;;5072465;28;11509;-78
2021/12/19 11:58:28;;;;;;;;;37.50;35.00;;;;;;;;5083470;28;11505;-79
2021/12/19 12:01:02;;;;;;;;;23.25;21.00;;;;;;;;5082923;28;11433;-80
2021/12/19 12:03:45;;;;;;;;;18.50;18.50;;;;;;;;5081085;28;11476;-78
2021/12/19 12:06:32;;;;;;;;;23.50;20.00;;;;;;;;5075672;28;11489;-77
2021/12/19 12:09:25;;;;;;;;;17.00;17.00;;;;;;;;5074521;28;11499;-74
2021/12/19 12:12:14;;;;;;;;;21.00;15.25;;;;;;;;5073434;28;12208;-77
2021/12/19 12:14:51;;;;;;;;;20.00;17.00;;;;;;;;5078873;28;11894;-77
2021/12/19 12:17:24;;;;;;;;;19.00;14.50;;;;;;;;5073824;28;11490;-74
2021/12/19 12:19:55;;;;;;;;;16.75;15.50;;;;;;;;5077408;28;11480;-78
2021/12/19 12:22:36;;;;;;;;;20.00;13.75;;;;;;;;5078614;28;11468;-76
2021/12/19 12:25:18;;;;;;;;;18.75;13.00;;;;;;;;5079829;28;11479;-88
2021/12/19 12:27:50;;;;;;;;;16.25;12.75;;;;;;;;5068156;28;12337;-71
2021/12/19 12:30:24;;;;;;;;;16.75;13.50;;;;;;;;5078012;28;11465;-77
2021/12/19 12:32:51;;;;;;;;;14.00;11.75;;;;;;;;5078371;28;11476;-77
2021/12/19 12:35:20;;;;;;;;;13.25;12.50;;;;;;;;5083378;28;11495;-81
2021/12/19 12:37:51;;;;;;;;;13.25;9.50;;;;;;;;5078288;28;11476;-79
2021/12/19 12:40:26;;;;;;;;;22.50;17.00;;;;;;;;5068996;28;11471;-75
2021/12/19 12:43:18;;;;;;;;;15.50;13.00;;;;;;;;5083387;28;12263;-75
2021/12/19 12:46:06;;;;;;;;;15.50;13.00;;;;;;;;5062074;28;11469;-77
2021/12/19 12:48:42;;;;;;;;;15.25;14.50;;;;;;;;5076704;28;11476;-77
2021/12/19 12:51:12;;;;;;;;;11.25;9.50;;;;;;;;5075228;28;11453;-79
2021/12/19 12:53:47;;;;;;;;;13.50;12.25;;;;;;;;5077180;28;11442;-79
2021/12/19 12:56:16;;;;;;;;;7.75;7.75;;;;;;;;5072968;28;11526;-79
2021/12/19 12:58:45;;;;;;;;;16.75;12.50;;;;;;;;5056499;28;11512;-79
2021/12/19 13:01:17;;;;;;;;;10.50;10.50;;;;;;;;5074262;28;11409;-78
2021/12/19 13:04:19;;;;;;;;;8.50;6.75;;;;;;;;5071156;28;11441;-76
2021/12/19 13:06:59;;;;;;;;;16.00;13.50;;;;;;;;4974519;28;12377;-78
2021/12/19 13:09:41;;;;;;;;;8.50;7.00;;;;;;;;5069460;28;11460;-77
2021/12/19 13:12:11;;;;;;;;;10.00;8.00;;;;;;;;5078516;28;11507;-78
2021/12/19 13:14:40;;;;;;;;;5.75;5.75;;;;;;;;5074709;28;11497;-76
2021/12/19 13:17:10;;;;;;;;;9.75;8.00;;;;;;;;5070100;28;11612;-79
2021/12/19 13:19:47;;;;;;;;;8.50;8.50;;;;;;;;5076135;28;11406;-78
2021/12/19 13:22:18;;;;;;;;;8.75;8.75;;;;;;;;5073395;28;11445;-77
2021/12/19 13:24:48;;;;;;;;;11.50;7.50;;;;;;;;5082101;28;11430;-78
2021/12/19 13:27:19;;;;;;;;;7.00;7.00;;;;;;;;5075313;28;11470;-80
2021/12/19 13:29:59;;;;;;;;;10.00;7.00;;;;;;;;5075735;28;11542;-78
2021/12/19 13:32:30;;;;;;;;;6.00;4.75;;;;;;;;5076963;28;11409;-79
2021/12/19 13:35:00;;;;;;;;;13.75;6.50;;;;;;;;5075351;28;12434;-79
2021/12/19 13:37:33;;;;;;;;;11.25;11.25;;;;;;;;5077033;28;11471;-78
2021/12/19 13:40:13;;;;;;;;;13.75;9.50;;;;;;;;5076109;28;11486;-80
2021/12/19 13:42:47;;;;;;;;;15.75;12.50;;;;;;;;5069071;28;11515;-80
2021/12/19 13:45:41;;;;;;;;;8.75;7.25;;;;;;;;5074933;28;11491;-80
2021/12/19 13:48:11;;;;;;;;;9.75;7.25;;;;;;;;5076158;28;11435;-80
2021/12/19 13:50:41;;;;;;;;;3.25;3.25;;;;;;;;5077183;28;11418;-82
2021/12/19 13:53:17;;;;;;;;;7.50;7.25;;;;;;;;5077785;28;11751;-83
2021/12/19 13:55:50;;;;;;;;;9.75;9.75;;;;;;;;5076817;28;12329;-77
2021/12/19 13:58:18;;;;;;;;;6.25;6.00;;;;;;;;5078859;28;11431;-83
2021/12/19 14:00:47;;;;;;;;;9.50;9.50;;;;;;;;5071484;28;12206;-76
2021/12/19 14:03:14;;;;;;;;;4.00;4.00;;;;;;;;5055174;28;11473;-75
2021/12/19 14:05:46;;;;;;;;;2.75;2.75;;;;;;;;5054763;28;11398;-77
2021/12/19 14:08:26;;;;;;;;;10.25;5.75;;;;;;;;5075923;28;11281;-74
2021/12/19 14:11:19;;;;;;;;;9.50;9.50;;;;;;;;5060736;28;11160;-75
2021/12/19 14:14:01;;;;;;;;;9.25;9.25;;;;;;;;5061913;28;11461;-80
2021/12/19 14:16:34;;;;;;;;;4.50;2.50;;;;;;;;5053153;28;11454;-76
2021/12/19 14:19:02;;;;;;;;;10.50;8.75;;;;;;;;5071113;28;11522;-76
2021/12/19 14:21:34;;;;;;;;;13.25;9.50;;;;;;;;5077147;28;11487;-80
2021/12/19 14:24:13;;;;;;;;;13.50;9.75;;;;;;;;5061486;28;11430;-77
2021/12/19 14:26:44;;;;;;;;;13.00;8.00;;;;;;;;5078073;28;12181;-78
2021/12/19 14:29:25;;;;;;;;;8.50;8.25;;;;;;;;5083183;28;11456;-80
2021/12/19 14:31:54;;;;;;;;;11.50;11.00;;;;;;;;5076440;28;11339;-82
2021/12/19 14:34:24;;;;;;;;;10.50;10.50;;;;;;;;5078165;28;11428;-77
2021/12/19 14:36:52;;;;;;;;;15.25;15.25;;;;;;;;5078966;28;11438;-77
2021/12/19 14:39:26;;;;;;;;;17.50;17.50;;;;;;;;5079286;28;11513;-75
2021/12/19 14:42:08;;;;;;;;;5.25;5.25;;;;;;;;5076100;28;11491;-73
2021/12/19 14:44:35;;;;;;;;;9.75;9.75;;;;;;;;5053677;28;11538;-74
2021/12/19 14:47:03;;;;;;;;;13.00;11.50;;;;;;;;5052839;28;11454;-74
2021/12/19 14:49:46;;;;;;;;;11.25;11.25;;;;;;;;5075666;28;11447;-74
2021/12/19 14:52:15;;;;;;;;;12.25;8.00;;;;;;;;5077009;28;11467;-75
2021/12/19 14:54:43;;;;;;;;;11.00;8.00;;;;;;;;5073319;28;12234;-74
2021/12/19 14:57:11;;;;;;;;;9.00;9.00;;;;;;;;5076214;28;11413;-75
2021/12/19 14:59:39;;;;;;;;;14.00;9.50;;;;;;;;5084014;28;11479;-74
2021/12/19 15:02:06;;;;;;;;;10.00;10.00;;;;;;;;5080472;28;11468;-76
2021/12/19 15:04:33;;;;;;;;;13.25;8.75;;;;;;;;5079012;28;11478;-74
2021/12/19 15:07:00;;;;;;;;;7.25;7.25;;;;;;;;5071673;28;11446;-76
2021/12/19 15:09:30;;;;;;;;;10.25;8.25;;;;;;;;5078831;28;11239;-85
2021/12/19 15:11:59;;;;;;;;;9.75;9.75;;;;;;;;5080008;28;11419;-81
2021/12/19 15:14:29;;;;;;;;;15.25;10.75;;;;;;;;5075255;28;11463;-88
2021/12/19 15:16:57;;;;;;;;;11.75;10.00;;;;;;;;5079883;28;11465;-81
2021/12/19 15:19:26;;;;;;;;;17.50;15.00;;;;;;;;5079034;28;11495;-87
2021/12/19 15:21:53;;;;;;;;;14.25;11.25;;;;;;;;5077725;28;11505;-87
2021/12/19 15:24:21;;;;;;;;;24.00;20.50;;;;;;;;5078505;28;11515;-82
2021/12/19 15:26:48;;;;;;;;;28.25;21.75;;;;;;;;5072957;28;11506;-84
2021/12/19 15:29:17;;;;;;;;;28.00;22.00;;;;;;;;5081181;28;11601;-84
2021/12/19 15:31:45;;;;;;;;;29.25;28.75;;;;;;;;5078039;28;11536;-74
2021/12/19 15:34:13;;;;;;;;;33.50;31.50;;;;;;;;5081046;28;11541;-74
2021/12/19 15:36:40;;;;;;;;;29.25;29.25;;;;;;;;5068989;28;12298;-77